sensor_id;sensor_type;location;lat;lon;timestamp;P1;durP1;ratioP1;P2;durP2;ratioP2
41201;SDS011;26936;50.524;8.684;2023-08-30T00:01:48;7.72;;;2.80;;
41201;SDS011;26936;50.524;8.684;2023-08-30T00:04:13;5.83;;;3.00;;
41201;SDS011;26936;50.524;8.684;2023-08-30T00:06:39;6.17;;;2.90;;
41201;SDS011;26936;50.524;8.684;2023-08-30T00:09:04;3.83;;;3.03;;
41201;SDS011;26936;50.524;8.684;2023-08-30T00:11:29;4.22;;;2.90;;
41201;SDS011;26936;50.524;8.684;2023-08-30T00:14:02;4.97;;;3.20;;
41201;SDS011;26936;50.524;8.684;2023-08-30T00:16:30;4.20;;;3.15;;
41201;SDS011;26936;50.524;8.684;2023-08-30T00:18:55;8.05;;;3.22;;
41201;SDS011;26936;50.524;8.684;2023-08-30T00:21:21;4.97;;;2.87;;
41201;SDS011;26936;50.524;8.684;2023-08-30T00:23:46;6.38;;;2.92;;
41201;SDS011;26936;50.524;8.684;2023-08-30T00:26:11;5.13;;;3.40;;
41201;SDS011;26936;50.524;8.684;2023-08-30T00:28:36;4.20;;;3.20;;
41201;SDS011;26936;50.524;8.684;2023-08-30T00:31:02;4.67;;;2.80;;
41201;SDS011;26936;50.524;8.684;2023-08-30T00:33:27;6.63;;;3.20;;
41201;SDS011;26936;50.524;8.684;2023-08-30T00:35:58;3.93;;;2.90;;
41201;SDS011;26936;50.524;8.684;2023-08-30T00:38:25;5.43;;;3.13;;
41201;SDS011;26936;50.524;8.684;2023-08-30T00:40:51;4.90;;;2.88;;
41201;SDS011;26936;50.524;8.684;2023-08-30T00:43:17;3.63;;;2.70;;
41201;SDS011;26936;50.524;8.684;2023-08-30T00:45:43;5.18;;;3.17;;
41201;SDS011;26936;50.524;8.684;2023-08-30T00:48:09;3.72;;;3.00;;
41201;SDS011;26936;50.524;8.684;2023-08-30T00:50:35;6.47;;;3.15;;
41201;SDS011;26936;50.524;8.684;2023-08-30T00:53:00;5.05;;;2.70;;
41201;SDS011;26936;50.524;8.684;2023-08-30T00:55:30;4.82;;;2.63;;
41201;SDS011;26936;50.524;8.684;2023-08-30T00:57:56;4.57;;;2.63;;
41201;SDS011;26936;50.524;8.684;2023-08-30T01:00:21;5.17;;;2.60;;
41201;SDS011;26936;50.524;8.684;2023-08-30T01:02:47;3.22;;;2.50;;
41201;SDS011;26936;50.524;8.684;2023-08-30T01:05:12;4.60;;;3.13;;
41201;SDS011;26936;50.524;8.684;2023-08-30T01:07:38;5.15;;;2.70;;
41201;SDS011;26936;50.524;8.684;2023-08-30T01:10:03;3.60;;;2.90;;
41201;SDS011;26936;50.524;8.684;2023-08-30T01:12:29;4.78;;;3.00;;
41201;SDS011;26936;50.524;8.684;2023-08-30T01:15:12;6.95;;;3.80;;
41201;SDS011;26936;50.524;8.684;2023-08-30T01:17:41;4.10;;;3.28;;
41201;SDS011;26936;50.524;8.684;2023-08-30T01:20:10;7.70;;;3.20;;
41201;SDS011;26936;50.524;8.684;2023-08-30T01:28:39;5.25;;;3.38;;
41201;SDS011;26936;50.524;8.684;2023-08-30T01:31:06;6.72;;;3.72;;
41201;SDS011;26936;50.524;8.684;2023-08-30T01:33:34;6.43;;;3.75;;
41201;SDS011;26936;50.524;8.684;2023-08-30T01:36:01;6.45;;;4.40;;
41201;SDS011;26936;50.524;8.684;2023-08-30T01:38:28;6.40;;;4.80;;
41201;SDS011;26936;50.524;8.684;2023-08-30T01:40:56;7.35;;;5.35;;
41201;SDS011;26936;50.524;8.684;2023-08-30T01:43:24;9.98;;;5.07;;
41201;SDS011;26936;50.524;8.684;2023-08-30T01:45:53;9.43;;;4.68;;
41201;SDS011;26936;50.524;8.684;2023-08-30T01:48:21;6.63;;;4.88;;
41201;SDS011;26936;50.524;8.684;2023-08-30T01:50:46;5.88;;;4.15;;
41201;SDS011;26936;50.524;8.684;2023-08-30T01:53:13;6.93;;;5.22;;
41201;SDS011;26936;50.524;8.684;2023-08-30T01:55:39;7.72;;;4.82;;
41201;SDS011;26936;50.524;8.684;2023-08-30T01:58:06;7.35;;;5.20;;
41201;SDS011;26936;50.524;8.684;2023-08-30T02:00:32;8.68;;;5.85;;
41201;SDS011;26936;50.524;8.684;2023-08-30T02:02:57;8.60;;;5.80;;
41201;SDS011;26936;50.524;8.684;2023-08-30T02:05:23;8.40;;;5.60;;
41201;SDS011;26936;50.524;8.684;2023-08-30T02:07:54;8.73;;;5.80;;
41201;SDS011;26936;50.524;8.684;2023-08-30T02:10:24;10.32;;;5.80;;
41201;SDS011;26936;50.524;8.684;2023-08-30T02:12:53;8.57;;;5.95;;
41201;SDS011;26936;50.524;8.684;2023-08-30T02:15:21;8.18;;;5.53;;
41201;SDS011;26936;50.524;8.684;2023-08-30T02:17:50;7.47;;;5.90;;
41201;SDS011;26936;50.524;8.684;2023-08-30T02:20:16;7.82;;;5.45;;
41201;SDS011;26936;50.524;8.684;2023-08-30T02:22:42;9.27;;;5.90;;
41201;SDS011;26936;50.524;8.684;2023-08-30T02:25:07;6.97;;;5.80;;
41201;SDS011;26936;50.524;8.684;2023-08-30T02:27:33;9.27;;;5.78;;
41201;SDS011;26936;50.524;8.684;2023-08-30T02:30:00;8.55;;;5.82;;
41201;SDS011;26936;50.524;8.684;2023-08-30T02:32:25;10.75;;;6.18;;
41201;SDS011;26936;50.524;8.684;2023-08-30T02:34:51;8.65;;;6.05;;
41201;SDS011;26936;50.524;8.684;2023-08-30T02:37:17;11.38;;;7.05;;
41201;SDS011;26936;50.524;8.684;2023-08-30T02:39:43;11.77;;;8.00;;
41201;SDS011;26936;50.524;8.684;2023-08-30T02:42:08;11.52;;;7.68;;
41201;SDS011;26936;50.524;8.684;2023-08-30T02:44:33;11.07;;;6.90;;
41201;SDS011;26936;50.524;8.684;2023-08-30T02:46:58;10.43;;;6.97;;
41201;SDS011;26936;50.524;8.684;2023-08-30T02:49:24;10.13;;;6.45;;
41201;SDS011;26936;50.524;8.684;2023-08-30T02:51:49;11.68;;;7.05;;
41201;SDS011;26936;50.524;8.684;2023-08-30T02:54:14;10.25;;;5.85;;
41201;SDS011;26936;50.524;8.684;2023-08-30T02:56:40;10.00;;;6.00;;
41201;SDS011;26936;50.524;8.684;2023-08-30T02:59:08;8.40;;;5.05;;
41201;SDS011;26936;50.524;8.684;2023-08-30T03:01:34;8.52;;;5.97;;
41201;SDS011;26936;50.524;8.684;2023-08-30T03:03:59;7.18;;;5.40;;
41201;SDS011;26936;50.524;8.684;2023-08-30T03:06:25;8.40;;;5.57;;
41201;SDS011;26936;50.524;8.684;2023-08-30T03:08:50;10.37;;;5.90;;
41201;SDS011;26936;50.524;8.684;2023-08-30T03:11:15;7.43;;;5.37;;
41201;SDS011;26936;50.524;8.684;2023-08-30T03:13:40;9.55;;;5.38;;
41201;SDS011;26936;50.524;8.684;2023-08-30T03:16:15;8.67;;;5.40;;
41201;SDS011;26936;50.524;8.684;2023-08-30T03:18:41;6.82;;;5.00;;
41201;SDS011;26936;50.524;8.684;2023-08-30T03:21:07;8.07;;;6.38;;
41201;SDS011;26936;50.524;8.684;2023-08-30T03:23:33;9.50;;;6.68;;
41201;SDS011;26936;50.524;8.684;2023-08-30T03:26:06;8.52;;;6.55;;
41201;SDS011;26936;50.524;8.684;2023-08-30T03:28:39;11.23;;;6.72;;
41201;SDS011;26936;50.524;8.684;2023-08-30T03:31:12;11.50;;;6.50;;
41201;SDS011;26936;50.524;8.684;2023-08-30T03:33:40;10.13;;;6.95;;
41201;SDS011;26936;50.524;8.684;2023-08-30T03:36:12;10.43;;;7.78;;
41201;SDS011;26936;50.524;8.684;2023-08-30T03:38:39;9.55;;;7.40;;
41201;SDS011;26936;50.524;8.684;2023-08-30T03:41:05;9.45;;;6.80;;
41201;SDS011;26936;50.524;8.684;2023-08-30T03:43:31;9.48;;;6.88;;
41201;SDS011;26936;50.524;8.684;2023-08-30T03:45:58;9.13;;;6.28;;
41201;SDS011;26936;50.524;8.684;2023-08-30T03:48:24;8.38;;;6.57;;
41201;SDS011;26936;50.524;8.684;2023-08-30T03:50:49;8.90;;;6.70;;
41201;SDS011;26936;50.524;8.684;2023-08-30T03:53:14;8.80;;;6.33;;
41201;SDS011;26936;50.524;8.684;2023-08-30T03:55:40;10.90;;;7.43;;
41201;SDS011;26936;50.524;8.684;2023-08-30T03:58:06;10.15;;;6.60;;
41201;SDS011;26936;50.524;8.684;2023-08-30T04:00:31;7.53;;;6.07;;
41201;SDS011;26936;50.524;8.684;2023-08-30T04:02:56;9.65;;;6.15;;
41201;SDS011;26936;50.524;8.684;2023-08-30T04:05:21;9.17;;;6.40;;
41201;SDS011;26936;50.524;8.684;2023-08-30T04:07:47;10.45;;;5.93;;
41201;SDS011;26936;50.524;8.684;2023-08-30T04:10:12;10.07;;;6.17;;
41201;SDS011;26936;50.524;8.684;2023-08-30T04:12:37;8.63;;;6.57;;
41201;SDS011;26936;50.524;8.684;2023-08-30T04:15:02;10.33;;;6.17;;
41201;SDS011;26936;50.524;8.684;2023-08-30T04:17:28;7.15;;;5.13;;
41201;SDS011;26936;50.524;8.684;2023-08-30T04:19:53;8.55;;;6.10;;
41201;SDS011;26936;50.524;8.684;2023-08-30T04:22:19;7.70;;;6.22;;
41201;SDS011;26936;50.524;8.684;2023-08-30T04:24:45;7.65;;;5.82;;
41201;SDS011;26936;50.524;8.684;2023-08-30T04:27:11;7.13;;;6.00;;
41201;SDS011;26936;50.524;8.684;2023-08-30T04:29:36;7.70;;;5.77;;
41201;SDS011;26936;50.524;8.684;2023-08-30T04:32:01;6.30;;;5.60;;
41201;SDS011;26936;50.524;8.684;2023-08-30T04:34:26;7.97;;;5.35;;
41201;SDS011;26936;50.524;8.684;2023-08-30T04:36:52;7.32;;;6.22;;
41201;SDS011;26936;50.524;8.684;2023-08-30T04:39:17;6.33;;;5.27;;
41201;SDS011;26936;50.524;8.684;2023-08-30T04:41:42;7.97;;;6.27;;
41201;SDS011;26936;50.524;8.684;2023-08-30T04:44:08;6.68;;;5.55;;
41201;SDS011;26936;50.524;8.684;2023-08-30T04:46:33;8.13;;;6.05;;
41201;SDS011;26936;50.524;8.684;2023-08-30T04:48:59;8.37;;;6.53;;
41201;SDS011;26936;50.524;8.684;2023-08-30T04:51:24;7.97;;;5.90;;
41201;SDS011;26936;50.524;8.684;2023-08-30T04:53:49;8.93;;;6.20;;
41201;SDS011;26936;50.524;8.684;2023-08-30T04:56:15;7.72;;;6.22;;
41201;SDS011;26936;50.524;8.684;2023-08-30T04:58:42;8.85;;;6.13;;
41201;SDS011;26936;50.524;8.684;2023-08-30T05:01:08;7.75;;;6.03;;
41201;SDS011;26936;50.524;8.684;2023-08-30T05:03:34;7.15;;;5.68;;
41201;SDS011;26936;50.524;8.684;2023-08-30T05:05:59;7.50;;;5.57;;
41201;SDS011;26936;50.524;8.684;2023-08-30T05:08:24;7.53;;;5.83;;
41201;SDS011;26936;50.524;8.684;2023-08-30T05:10:50;6.53;;;5.57;;
41201;SDS011;26936;50.524;8.684;2023-08-30T05:13:15;9.43;;;5.13;;
41201;SDS011;26936;50.524;8.684;2023-08-30T05:15:41;8.02;;;4.75;;
41201;SDS011;26936;50.524;8.684;2023-08-30T05:18:06;7.55;;;5.22;;
41201;SDS011;26936;50.524;8.684;2023-08-30T05:20:32;5.97;;;4.93;;
41201;SDS011;26936;50.524;8.684;2023-08-30T05:22:57;6.30;;;5.40;;
41201;SDS011;26936;50.524;8.684;2023-08-30T05:25:22;6.40;;;5.05;;
41201;SDS011;26936;50.524;8.684;2023-08-30T05:27:48;6.23;;;5.10;;
41201;SDS011;26936;50.524;8.684;2023-08-30T05:30:13;8.10;;;5.25;;
41201;SDS011;26936;50.524;8.684;2023-08-30T05:32:39;8.80;;;5.10;;
41201;SDS011;26936;50.524;8.684;2023-08-30T05:35:04;7.07;;;5.13;;
41201;SDS011;26936;50.524;8.684;2023-08-30T05:37:29;6.40;;;4.90;;
41201;SDS011;26936;50.524;8.684;2023-08-30T05:39:56;8.60;;;5.07;;
41201;SDS011;26936;50.524;8.684;2023-08-30T05:42:22;7.57;;;5.32;;
41201;SDS011;26936;50.524;8.684;2023-08-30T05:44:47;6.43;;;5.25;;
41201;SDS011;26936;50.524;8.684;2023-08-30T05:47:13;10.27;;;7.30;;
41201;SDS011;26936;50.524;8.684;2023-08-30T05:49:40;10.95;;;8.38;;
41201;SDS011;26936;50.524;8.684;2023-08-30T05:52:05;14.77;;;10.48;;
41201;SDS011;26936;50.524;8.684;2023-08-30T05:54:31;15.38;;;11.20;;
41201;SDS011;26936;50.524;8.684;2023-08-30T05:56:58;16.67;;;10.32;;
41201;SDS011;26936;50.524;8.684;2023-08-30T05:59:24;15.05;;;10.02;;
41201;SDS011;26936;50.524;8.684;2023-08-30T06:01:49;18.17;;;11.57;;
41201;SDS011;26936;50.524;8.684;2023-08-30T06:04:14;15.50;;;10.70;;
41201;SDS011;26936;50.524;8.684;2023-08-30T06:06:39;14.37;;;10.40;;
41201;SDS011;26936;50.524;8.684;2023-08-30T06:09:05;15.27;;;11.20;;
41201;SDS011;26936;50.524;8.684;2023-08-30T06:11:30;15.73;;;11.65;;
41201;SDS011;26936;50.524;8.684;2023-08-30T06:13:55;17.60;;;11.38;;
41201;SDS011;26936;50.524;8.684;2023-08-30T06:16:20;14.47;;;10.73;;
41201;SDS011;26936;50.524;8.684;2023-08-30T06:18:46;14.70;;;10.25;;
41201;SDS011;26936;50.524;8.684;2023-08-30T06:21:11;15.57;;;10.60;;
41201;SDS011;26936;50.524;8.684;2023-08-30T06:23:37;14.87;;;10.17;;
41201;SDS011;26936;50.524;8.684;2023-08-30T06:26:03;13.70;;;10.23;;
41201;SDS011;26936;50.524;8.684;2023-08-30T06:28:28;16.85;;;11.05;;
41201;SDS011;26936;50.524;8.684;2023-08-30T06:30:53;14.67;;;11.53;;
41201;SDS011;26936;50.524;8.684;2023-08-30T06:33:18;15.70;;;12.10;;
41201;SDS011;26936;50.524;8.684;2023-08-30T06:35:44;16.17;;;12.00;;
41201;SDS011;26936;50.524;8.684;2023-08-30T06:38:12;15.90;;;11.57;;
41201;SDS011;26936;50.524;8.684;2023-08-30T06:40:42;15.43;;;11.90;;
41201;SDS011;26936;50.524;8.684;2023-08-30T06:43:08;18.10;;;12.15;;
41201;SDS011;26936;50.524;8.684;2023-08-30T06:45:33;16.42;;;12.52;;
41201;SDS011;26936;50.524;8.684;2023-08-30T06:47:58;16.47;;;11.57;;
41201;SDS011;26936;50.524;8.684;2023-08-30T06:50:24;15.27;;;11.83;;
41201;SDS011;26936;50.524;8.684;2023-08-30T06:52:49;15.37;;;12.33;;
41201;SDS011;26936;50.524;8.684;2023-08-30T06:55:14;19.00;;;12.60;;
41201;SDS011;26936;50.524;8.684;2023-08-30T06:57:39;17.08;;;12.55;;
41201;SDS011;26936;50.524;8.684;2023-08-30T07:00:05;15.70;;;12.03;;
41201;SDS011;26936;50.524;8.684;2023-08-30T07:02:36;16.83;;;11.80;;
41201;SDS011;26936;50.524;8.684;2023-08-30T07:05:02;15.57;;;12.35;;
41201;SDS011;26936;50.524;8.684;2023-08-30T07:07:29;16.00;;;11.38;;
41201;SDS011;26936;50.524;8.684;2023-08-30T07:09:55;12.75;;;10.80;;
41201;SDS011;26936;50.524;8.684;2023-08-30T07:12:20;17.77;;;11.05;;
41201;SDS011;26936;50.524;8.684;2023-08-30T07:14:45;16.48;;;11.13;;
41201;SDS011;26936;50.524;8.684;2023-08-30T07:17:11;13.07;;;10.27;;
41201;SDS011;26936;50.524;8.684;2023-08-30T07:19:36;13.03;;;10.77;;
41201;SDS011;26936;50.524;8.684;2023-08-30T07:22:01;11.87;;;9.73;;
41201;SDS011;26936;50.524;8.684;2023-08-30T07:24:27;14.95;;;9.50;;
41201;SDS011;26936;50.524;8.684;2023-08-30T07:26:53;13.03;;;9.60;;
41201;SDS011;26936;50.524;8.684;2023-08-30T07:29:18;12.02;;;9.68;;
41201;SDS011;26936;50.524;8.684;2023-08-30T07:31:43;11.83;;;9.43;;
41201;SDS011;26936;50.524;8.684;2023-08-30T07:34:09;13.07;;;9.13;;
41201;SDS011;26936;50.524;8.684;2023-08-30T07:36:34;11.50;;;9.25;;
41201;SDS011;26936;50.524;8.684;2023-08-30T07:39:00;11.43;;;9.73;;
41201;SDS011;26936;50.524;8.684;2023-08-30T07:41:25;15.18;;;10.20;;
41201;SDS011;26936;50.524;8.684;2023-08-30T07:43:50;12.70;;;9.55;;
41201;SDS011;26936;50.524;8.684;2023-08-30T07:46:15;13.50;;;9.95;;
41201;SDS011;26936;50.524;8.684;2023-08-30T07:48:41;12.13;;;9.95;;
41201;SDS011;26936;50.524;8.684;2023-08-30T07:51:06;12.70;;;9.48;;
41201;SDS011;26936;50.524;8.684;2023-08-30T07:53:31;11.97;;;8.90;;
41201;SDS011;26936;50.524;8.684;2023-08-30T07:55:57;10.53;;;8.43;;
41201;SDS011;26936;50.524;8.684;2023-08-30T07:58:22;13.57;;;9.13;;
41201;SDS011;26936;50.524;8.684;2023-08-30T08:00:50;10.27;;;8.68;;
41201;SDS011;26936;50.524;8.684;2023-08-30T08:03:17;11.18;;;8.35;;
41201;SDS011;26936;50.524;8.684;2023-08-30T08:05:42;12.38;;;8.35;;
41201;SDS011;26936;50.524;8.684;2023-08-30T08:08:07;10.32;;;7.43;;
41201;SDS011;26936;50.524;8.684;2023-08-30T08:10:33;8.57;;;7.10;;
41201;SDS011;26936;50.524;8.684;2023-08-30T08:12:59;8.73;;;6.18;;
41201;SDS011;26936;50.524;8.684;2023-08-30T08:15:24;12.35;;;8.23;;
41201;SDS011;26936;50.524;8.684;2023-08-30T08:17:49;10.60;;;7.50;;
41201;SDS011;26936;50.524;8.684;2023-08-30T08:20:15;9.25;;;7.80;;
41201;SDS011;26936;50.524;8.684;2023-08-30T08:22:40;10.32;;;7.32;;
41201;SDS011;26936;50.524;8.684;2023-08-30T08:25:05;10.60;;;7.77;;
41201;SDS011;26936;50.524;8.684;2023-08-30T08:27:31;8.70;;;6.70;;
41201;SDS011;26936;50.524;8.684;2023-08-30T08:29:56;10.65;;;7.50;;
41201;SDS011;26936;50.524;8.684;2023-08-30T08:32:21;8.37;;;6.57;;
41201;SDS011;26936;50.524;8.684;2023-08-30T08:34:47;14.00;;;7.40;;
41201;SDS011;26936;50.524;8.684;2023-08-30T08:37:12;10.33;;;7.23;;
41201;SDS011;26936;50.524;8.684;2023-08-30T08:39:38;10.70;;;7.47;;
41201;SDS011;26936;50.524;8.684;2023-08-30T08:42:03;12.33;;;8.60;;
41201;SDS011;26936;50.524;8.684;2023-08-30T08:44:31;12.82;;;8.27;;
41201;SDS011;26936;50.524;8.684;2023-08-30T08:46:57;11.45;;;7.88;;
41201;SDS011;26936;50.524;8.684;2023-08-30T08:49:24;12.32;;;9.15;;
41201;SDS011;26936;50.524;8.684;2023-08-30T08:51:53;13.43;;;9.38;;
41201;SDS011;26936;50.524;8.684;2023-08-30T08:54:19;17.77;;;11.65;;
41201;SDS011;26936;50.524;8.684;2023-08-30T08:56:45;14.55;;;10.95;;
41201;SDS011;26936;50.524;8.684;2023-08-30T08:59:10;13.50;;;9.75;;
41201;SDS011;26936;50.524;8.684;2023-08-30T09:01:36;14.52;;;10.85;;
41201;SDS011;26936;50.524;8.684;2023-08-30T09:04:08;14.95;;;9.75;;
41201;SDS011;26936;50.524;8.684;2023-08-30T09:06:35;13.65;;;9.63;;
41201;SDS011;26936;50.524;8.684;2023-08-30T09:09:02;15.05;;;10.07;;
41201;SDS011;26936;50.524;8.684;2023-08-30T09:11:33;16.60;;;10.82;;
41201;SDS011;26936;50.524;8.684;2023-08-30T09:13:58;17.08;;;10.70;;
41201;SDS011;26936;50.524;8.684;2023-08-30T09:16:23;17.83;;;11.33;;
41201;SDS011;26936;50.524;8.684;2023-08-30T09:21:27;16.35;;;10.52;;
41201;SDS011;26936;50.524;8.684;2023-08-30T09:23:59;18.42;;;10.40;;
41201;SDS011;26936;50.524;8.684;2023-08-30T09:26:29;14.18;;;9.55;;
41201;SDS011;26936;50.524;8.684;2023-08-30T09:29:03;13.52;;;9.77;;
41201;SDS011;26936;50.524;8.684;2023-08-30T09:31:32;15.68;;;9.63;;
41201;SDS011;26936;50.524;8.684;2023-08-30T09:34:02;14.73;;;10.18;;
41201;SDS011;26936;50.524;8.684;2023-08-30T09:36:34;14.98;;;10.15;;
41201;SDS011;26936;50.524;8.684;2023-08-30T09:39:04;14.20;;;9.52;;
41201;SDS011;26936;50.524;8.684;2023-08-30T09:41:34;14.73;;;10.32;;
41201;SDS011;26936;50.524;8.684;2023-08-30T09:44:00;16.70;;;10.00;;
41201;SDS011;26936;50.524;8.684;2023-08-30T09:46:31;10.90;;;8.57;;
41201;SDS011;26936;50.524;8.684;2023-08-30T09:48:57;12.60;;;8.25;;
41201;SDS011;26936;50.524;8.684;2023-08-30T09:51:22;11.88;;;7.18;;
41201;SDS011;26936;50.524;8.684;2023-08-30T09:53:51;11.35;;;7.47;;
41201;SDS011;26936;50.524;8.684;2023-08-30T09:56:22;12.20;;;6.63;;
41201;SDS011;26936;50.524;8.684;2023-08-30T09:58:48;9.05;;;7.30;;
41201;SDS011;26936;50.524;8.684;2023-08-30T10:01:14;11.32;;;7.13;;
41201;SDS011;26936;50.524;8.684;2023-08-30T10:03:40;13.00;;;6.90;;
41201;SDS011;26936;50.524;8.684;2023-08-30T10:06:05;11.07;;;6.65;;
41201;SDS011;26936;50.524;8.684;2023-08-30T10:08:31;9.18;;;6.15;;
41201;SDS011;26936;50.524;8.684;2023-08-30T10:10:58;11.02;;;6.20;;
41201;SDS011;26936;50.524;8.684;2023-08-30T10:13:25;9.70;;;6.57;;
41201;SDS011;26936;50.524;8.684;2023-08-30T10:15:50;10.77;;;6.10;;
41201;SDS011;26936;50.524;8.684;2023-08-30T10:18:20;5.90;;;4.25;;
41201;SDS011;26936;50.524;8.684;2023-08-30T10:20:47;5.32;;;3.42;;
41201;SDS011;26936;50.524;8.684;2023-08-30T10:23:13;4.13;;;2.80;;
41201;SDS011;26936;50.524;8.684;2023-08-30T10:25:42;4.10;;;2.00;;
41201;SDS011;26936;50.524;8.684;2023-08-30T10:28:09;6.35;;;2.08;;
41201;SDS011;26936;50.524;8.684;2023-08-30T10:30:36;3.70;;;1.70;;
41201;SDS011;26936;50.524;8.684;2023-08-30T10:33:11;3.13;;;1.80;;
41201;SDS011;26936;50.524;8.684;2023-08-30T10:35:46;3.50;;;1.80;;
41201;SDS011;26936;50.524;8.684;2023-08-30T10:38:13;2.92;;;1.90;;
41201;SDS011;26936;50.524;8.684;2023-08-30T10:40:50;3.95;;;1.95;;
41201;SDS011;26936;50.524;8.684;2023-08-30T10:43:15;4.53;;;1.60;;
41201;SDS011;26936;50.524;8.684;2023-08-30T10:45:41;2.70;;;1.65;;
41201;SDS011;26936;50.524;8.684;2023-08-30T10:48:06;2.20;;;1.57;;
41201;SDS011;26936;50.524;8.684;2023-08-30T10:50:32;3.80;;;2.00;;
41201;SDS011;26936;50.524;8.684;2023-08-30T10:52:59;3.28;;;1.52;;
41201;SDS011;26936;50.524;8.684;2023-08-30T10:55:24;3.45;;;1.90;;
41201;SDS011;26936;50.524;8.684;2023-08-30T10:58:03;2.83;;;1.52;;
41201;SDS011;26936;50.524;8.684;2023-08-30T11:00:32;2.67;;;1.88;;
41201;SDS011;26936;50.524;8.684;2023-08-30T11:02:58;3.00;;;2.15;;
41201;SDS011;26936;50.524;8.684;2023-08-30T11:05:24;3.08;;;2.00;;
41201;SDS011;26936;50.524;8.684;2023-08-30T11:07:51;3.92;;;2.00;;
41201;SDS011;26936;50.524;8.684;2023-08-30T11:10:17;3.40;;;2.00;;
41201;SDS011;26936;50.524;8.684;2023-08-30T11:12:43;5.25;;;2.00;;
41201;SDS011;26936;50.524;8.684;2023-08-30T11:15:11;3.35;;;2.20;;
41201;SDS011;26936;50.524;8.684;2023-08-30T11:17:41;3.33;;;2.40;;
41201;SDS011;26936;50.524;8.684;2023-08-30T11:22:35;3.92;;;2.15;;
41201;SDS011;26936;50.524;8.684;2023-08-30T11:25:02;3.72;;;2.30;;
41201;SDS011;26936;50.524;8.684;2023-08-30T11:27:28;4.10;;;2.33;;
41201;SDS011;26936;50.524;8.684;2023-08-30T11:29:58;3.17;;;2.40;;
41201;SDS011;26936;50.524;8.684;2023-08-30T11:32:24;4.50;;;2.20;;
41201;SDS011;26936;50.524;8.684;2023-08-30T11:34:56;5.17;;;2.80;;
41201;SDS011;26936;50.524;8.684;2023-08-30T11:37:22;4.03;;;2.50;;
41201;SDS011;26936;50.524;8.684;2023-08-30T11:39:51;3.65;;;2.38;;
41201;SDS011;26936;50.524;8.684;2023-08-30T11:42:17;6.80;;;2.65;;
41201;SDS011;26936;50.524;8.684;2023-08-30T11:44:43;5.57;;;2.30;;
41201;SDS011;26936;50.524;8.684;2023-08-30T11:47:09;3.45;;;2.47;;
41201;SDS011;26936;50.524;8.684;2023-08-30T11:49:34;3.83;;;2.60;;
41201;SDS011;26936;50.524;8.684;2023-08-30T11:52:00;4.75;;;2.88;;
41201;SDS011;26936;50.524;8.684;2023-08-30T11:54:25;5.00;;;2.42;;
41201;SDS011;26936;50.524;8.684;2023-08-30T11:56:51;4.10;;;2.60;;
41201;SDS011;26936;50.524;8.684;2023-08-30T11:59:20;4.75;;;2.47;;
41201;SDS011;26936;50.524;8.684;2023-08-30T12:01:47;3.90;;;2.55;;
41201;SDS011;26936;50.524;8.684;2023-08-30T12:04:14;6.18;;;2.50;;
41201;SDS011;26936;50.524;8.684;2023-08-30T12:06:40;3.75;;;2.80;;
41201;SDS011;26936;50.524;8.684;2023-08-30T12:09:05;4.00;;;2.50;;
41201;SDS011;26936;50.524;8.684;2023-08-30T12:11:37;4.05;;;2.60;;
41201;SDS011;26936;50.524;8.684;2023-08-30T12:14:02;3.47;;;2.47;;
41201;SDS011;26936;50.524;8.684;2023-08-30T12:16:27;3.13;;;2.40;;
41201;SDS011;26936;50.524;8.684;2023-08-30T12:18:53;4.20;;;2.20;;
41201;SDS011;26936;50.524;8.684;2023-08-30T12:21:18;2.60;;;2.13;;
41201;SDS011;26936;50.524;8.684;2023-08-30T12:23:43;3.80;;;2.20;;
41201;SDS011;26936;50.524;8.684;2023-08-30T12:26:09;4.60;;;2.50;;
41201;SDS011;26936;50.524;8.684;2023-08-30T12:28:37;3.50;;;2.53;;
41201;SDS011;26936;50.524;8.684;2023-08-30T12:31:04;3.40;;;2.30;;
41201;SDS011;26936;50.524;8.684;2023-08-30T12:33:29;4.60;;;2.30;;
41201;SDS011;26936;50.524;8.684;2023-08-30T12:35:56;3.22;;;1.95;;
41201;SDS011;26936;50.524;8.684;2023-08-30T12:38:22;3.88;;;2.08;;
41201;SDS011;26936;50.524;8.684;2023-08-30T12:40:52;4.10;;;2.35;;
41201;SDS011;26936;50.524;8.684;2023-08-30T12:43:19;4.38;;;2.10;;
41201;SDS011;26936;50.524;8.684;2023-08-30T12:45:45;3.30;;;1.92;;
41201;SDS011;26936;50.524;8.684;2023-08-30T12:48:11;4.50;;;2.25;;
41201;SDS011;26936;50.524;8.684;2023-08-30T12:50:39;3.85;;;1.95;;
41201;SDS011;26936;50.524;8.684;2023-08-30T12:53:05;2.92;;;2.05;;
41201;SDS011;26936;50.524;8.684;2023-08-30T12:55:31;4.78;;;2.05;;
41201;SDS011;26936;50.524;8.684;2023-08-30T12:57:56;3.00;;;2.15;;
41201;SDS011;26936;50.524;8.684;2023-08-30T13:00:22;3.42;;;2.13;;
41201;SDS011;26936;50.524;8.684;2023-08-30T13:02:48;3.97;;;2.10;;
41201;SDS011;26936;50.524;8.684;2023-08-30T13:05:13;3.30;;;1.90;;
41201;SDS011;26936;50.524;8.684;2023-08-30T13:07:39;4.28;;;2.30;;
41201;SDS011;26936;50.524;8.684;2023-08-30T13:10:05;3.67;;;1.70;;
41201;SDS011;26936;50.524;8.684;2023-08-30T13:12:31;2.90;;;1.92;;
41201;SDS011;26936;50.524;8.684;2023-08-30T13:14:57;5.07;;;2.13;;
41201;SDS011;26936;50.524;8.684;2023-08-30T13:17:22;3.55;;;2.10;;
41201;SDS011;26936;50.524;8.684;2023-08-30T13:19:47;5.75;;;2.13;;
41201;SDS011;26936;50.524;8.684;2023-08-30T13:22:12;4.20;;;2.05;;
41201;SDS011;26936;50.524;8.684;2023-08-30T13:24:38;3.67;;;1.97;;
41201;SDS011;26936;50.524;8.684;2023-08-30T13:27:03;2.63;;;2.10;;
41201;SDS011;26936;50.524;8.684;2023-08-30T13:29:29;4.00;;;2.17;;
41201;SDS011;26936;50.524;8.684;2023-08-30T13:31:54;4.80;;;2.28;;
41201;SDS011;26936;50.524;8.684;2023-08-30T13:34:20;2.97;;;1.98;;
41201;SDS011;26936;50.524;8.684;2023-08-30T13:36:45;6.00;;;2.35;;
41201;SDS011;26936;50.524;8.684;2023-08-30T13:39:10;5.20;;;2.33;;
41201;SDS011;26936;50.524;8.684;2023-08-30T13:41:36;3.50;;;2.10;;
41201;SDS011;26936;50.524;8.684;2023-08-30T13:44:01;3.90;;;2.25;;
41201;SDS011;26936;50.524;8.684;2023-08-30T13:46:29;3.30;;;2.45;;
41201;SDS011;26936;50.524;8.684;2023-08-30T13:48:54;3.05;;;2.00;;
41201;SDS011;26936;50.524;8.684;2023-08-30T13:51:21;3.65;;;2.20;;
41201;SDS011;26936;50.524;8.684;2023-08-30T13:53:50;4.22;;;2.30;;
41201;SDS011;26936;50.524;8.684;2023-08-30T13:56:15;4.72;;;2.50;;
41201;SDS011;26936;50.524;8.684;2023-08-30T13:58:41;3.47;;;2.40;;
41201;SDS011;26936;50.524;8.684;2023-08-30T14:01:07;8.77;;;2.83;;
41201;SDS011;26936;50.524;8.684;2023-08-30T14:03:32;4.78;;;2.20;;
41201;SDS011;26936;50.524;8.684;2023-08-30T14:05:58;6.20;;;2.78;;
41201;SDS011;26936;50.524;8.684;2023-08-30T14:08:23;3.65;;;2.40;;
41201;SDS011;26936;50.524;8.684;2023-08-30T14:10:48;5.30;;;2.70;;
41201;SDS011;26936;50.524;8.684;2023-08-30T14:13:14;5.00;;;2.30;;
41201;SDS011;26936;50.524;8.684;2023-08-30T14:15:40;5.40;;;2.50;;
41201;SDS011;26936;50.524;8.684;2023-08-30T14:18:06;6.35;;;2.78;;
41201;SDS011;26936;50.524;8.684;2023-08-30T14:20:31;3.15;;;2.55;;
41201;SDS011;26936;50.524;8.684;2023-08-30T14:22:57;4.67;;;2.53;;
41201;SDS011;26936;50.524;8.684;2023-08-30T14:25:22;4.93;;;2.70;;
41201;SDS011;26936;50.524;8.684;2023-08-30T14:27:47;4.80;;;2.70;;
41201;SDS011;26936;50.524;8.684;2023-08-30T14:30:13;4.07;;;2.60;;
41201;SDS011;26936;50.524;8.684;2023-08-30T14:32:38;4.45;;;2.58;;
41201;SDS011;26936;50.524;8.684;2023-08-30T14:35:03;3.93;;;2.60;;
41201;SDS011;26936;50.524;8.684;2023-08-30T14:37:29;3.70;;;2.20;;
41201;SDS011;26936;50.524;8.684;2023-08-30T14:39:54;4.73;;;2.67;;
41201;SDS011;26936;50.524;8.684;2023-08-30T14:42:20;8.50;;;3.00;;
41201;SDS011;26936;50.524;8.684;2023-08-30T14:44:49;4.78;;;2.60;;
41201;SDS011;26936;50.524;8.684;2023-08-30T14:47:15;3.58;;;2.42;;